Last 30 Days

Squaw-Belmont 8000'

Daily Data | America/Los_Angeles
as of 10/27/20 7:41 PM PDT
Date Daily Max Temp (°F) Time of Max Temp Daily Min Temp (°F) Time of Min Temp Daily Rain (In) Seasonal Rainfall (In) Wind Spd (mph) Daily Max Wind (mph) Time of Max Wind Max Wind Dir (°) Max RH (%) Min RH (%) Wet Bulb (°F) WetB Hrs <28F (hrs) Bat Volt Min Day (V)
10/26/20 40.6 1418 16.5 0212 0.00 97.70 7.5 28.9 0020 NE | 47 75 14 19.2 23.9 13.5
10/25/20 42.0 1002 17.5 2348 0.00 97.70 9.5 29.8 2353 ENE | 72 73 22 25.5 9.9 13.4
10/24/20 56.5 1303 39.5 2340 0.00 97.70 9.3 20.8 0845 W | 263 48 20 34.1 0.0 13.2
10/23/20 60.4 1302 33.8 0200 0.00 97.70 5.7 17.4 1716 SW | 224 82 24 37.0 0.0 13.2
10/22/20 60.1 1426 35.3 2335 0.00 97.70 2.9 12.6 0107 SW | 220 75 24 36.3 0.0 13.2
10/21/20 64.7 1348 48.8 0001 0.00 97.70 7.4 18.9 1453 WSW | 240 40 17 39.6 0.0 13.1
10/20/20 68.2 1350 44.2 0703 0.00 97.70 3.3 13.2 1714 WNW | 302 47 14 40.4 0.0 13.2
10/19/20 68.9 1436 48.9 0655 0.00 97.70 4.8 16.3 1114 WNW | 300 44 20 40.7 0.0 13.1
10/18/20 66.0 1316 50.2 2320 0.00 97.70 7.3 20.7 0635 WSW | 256 45 16 41.8 0.0 13.1
10/17/20 71.2 1401 48.8 0004 0.00 97.70 5.2 17.7 1231 SSW | 212 34 13 41.1 0.0 13.1
10/16/20 67.4 1419 41.1 0707 0.00 97.70 3.0 11.0 1104 E | 97 51 19 38.5 0.0 13.2
10/15/20 64.6 1326 45.2 2323 0.00 97.70 3.1 12.8 1505 ENE | 70 49 29 40.8 0.0 13.2
10/14/20 69.1 1432 48.7 0050 0.00 97.70 3.1 15.3 1604 NNE | 20 54 22 43.2 0.0 13.1
10/13/20 68.7 1312 49.8 0001 0.00 97.70 6.4 18.8 1214 SW | 223 52 22 41.8 0.0 13.1
10/12/20 66.6 1423 46.8 0004 0.00 97.70 6.2 16.2 0425 WSW | 256 59 17 39.9 0.0 13.1
10/11/20 62.2 1437 38.0 0204 0.00 97.70 5.7 27.1 0013 SW | 233 93 25 40.0 0.0 13.2
10/10/20 50.3 1150 38.6 2318 0.00 97.70 12.8 41.3 1520 ESE | 123 97 30 38.2 0.0 13.2
10/9/20 66.5 1350 44.7 1914 0.00 97.70 4.9 26.2 2350 SW | 218 52 20 38.0 0.0 13.1
10/8/20 61.2 1347 48.3 2312 0.00 97.70 6.0 17.8 1748 WSW | 252 33 13 37.6 0.0 13.1
10/7/20 71.6 1354 51.1 2047 0.00 97.70 6.6 17.2 2014 WSW | 248 32 8 39.8 0.0 13.1
10/6/20 73.1 1408 50.7 0718 0.00 97.70 2.6 14.8 1441 SW | 223 33 7 41.0 0.0 13.1
10/5/20 71.6 1442 53.6 0554 0.00 97.70 7.7 25.2 0106 SSW | 209 32 11 41.1 0.0 13.1
10/4/20 69.7 1429 54.1 0637 0.00 97.70 7.8 27.8 2154 SW | 229 28 13 41.3 0.0 13.1
10/3/20 74.3 1432 56.0 0516 0.00 97.70 2.9 14.7 1559 WSW | 242 36 11 42.8 0.0 13.0
10/2/20 77.1 1354 56.5 0001 0.00 97.70 1.8 10.7 1419 ENE | 71 32 9 43.3 0.0 13.0
10/1/20 74.7 1410 53.2 0654 0.00 97.70 2.9 15.9 1346 SE | 137 32 12 43.9 0.0 13.0
9/30/20 73.5 1459 54.2 0318 0.00 97.70 3.3 10.7 1341 SSE | 164 40 23 45.1 0.0 13.1
9/29/20 71.3 1416 49.1 0042 0.00 97.70 4.8 20.1 1417 SW | 221 39 20 43.5 0.0 13.1
9/28/20 64.9 1600 44.6 0656 0.00 97.70 5.9 20.9 0447 ENE | 66 50 21 39.8 0.0 13.1
9/27/20 61.6 1618 44.8 0646 0.00 97.70 5.8 19.2 1412 E | 101 67 33 42.1 0.0 13.2
Max 77.1 - 56.5 - 0.00 - 12.8 41.3 - - 97 33 45.1 23.9 13.5
Avg - - - - - - 5.5 - - - - - 39.2 - -
Min 40.6 - 16.5 - 0.00 - 1.8 10.7 - - 28 7 19.2 0.0 13.0